Time;durP1;ratioP1;P1;durP2;ratioP2;P2;SDS_P1;SDS_P2;PMS_P1;PMS_P2;Temp;Humidity;BMP_temperature;BMP_pressure;BME280_temperature;BME280_humidity;BME280_pressure;Samples;Min_cycle;Max_cycle;Signal;HPM_P1;HPM_P2
2023/01/17 00:01:54;;;;;;;5.27;3.87;;;3.80;1.00;;;;;;4877745;29;20645;-87
2023/01/17 00:09:55;;;;;;;4.22;3.17;;;3.90;1.00;;;;;;4877295;29;20226;-87
2023/01/17 00:12:22;;;;;;;3.60;3.00;;;3.90;1.00;;;;;;4860905;29;20583;-88
2023/01/17 00:14:48;;;;;;;4.55;3.53;;;3.90;1.00;;;;;;4869249;29;20198;-89
2023/01/17 00:17:14;;;;;;;6.07;3.70;;;3.90;1.00;;;;;;4861039;29;20187;-88
2023/01/17 01:34:28;;;;;;;3.00;1.80;;;3.80;1.00;;;;;;4881230;29;20218;-87
2023/01/17 01:36:54;;;;;;;2.83;2.00;;;3.80;1.00;;;;;;4879722;29;20656;-88
2023/01/17 01:39:19;;;;;;;4.37;2.20;;;3.80;1.00;;;;;;4864458;29;20696;-87
2023/01/17 01:41:45;;;;;;;4.93;2.23;;;3.80;1.00;;;;;;4878719;29;20648;-88
2023/01/17 01:44:47;;;;;;;3.77;2.33;;;3.80;1.00;;;;;;4872213;29;20183;-88
2023/01/17 01:47:27;;;;;;;4.25;2.38;;;3.80;1.00;;;;;;4885352;29;20196;-87
2023/01/17 01:49:56;;;;;;;7.13;1.95;;;3.80;1.00;;;;;;4880913;29;20583;-88
2023/01/17 01:52:26;;;;;;;7.63;2.58;;;3.80;1.00;;;;;;4862778;29;20195;-87
2023/01/17 01:54:58;;;;;;;2.55;1.85;;;3.80;1.00;;;;;;4864133;29;20656;-88
2023/01/17 01:57:30;;;;;;;3.45;2.20;;;3.80;1.00;;;;;;4880356;29;20564;-87
2023/01/17 02:00:04;;;;;;;4.93;2.40;;;3.80;1.00;;;;;;4880316;29;20199;-87
2023/01/17 02:02:30;;;;;;;5.57;2.85;;;3.80;1.00;;;;;;4860700;29;20187;-89
2023/01/17 02:04:58;;;;;;;4.35;2.40;;;3.80;1.00;;;;;;4871034;29;20188;-88
2023/01/17 02:07:40;;;;;;;4.63;2.13;;;3.80;1.00;;;;;;4852509;29;20199;-87
2023/01/17 02:10:05;;;;;;;4.15;1.95;;;3.70;1.00;;;;;;4880026;29;20230;-87
2023/01/17 02:12:31;;;;;;;5.50;2.17;;;3.70;1.00;;;;;;4863192;29;20188;-87
2023/01/17 02:14:59;;;;;;;7.07;3.10;;;3.70;1.00;;;;;;4878866;29;20274;-88
2023/01/17 02:17:49;;;;;;;4.32;2.65;;;3.70;1.00;;;;;;4862964;29;20459;-89
2023/01/17 02:21:03;;;;;;;4.07;3.03;;;3.70;1.00;;;;;;4875106;29;20204;-88
2023/01/17 02:23:38;;;;;;;6.32;3.15;;;3.60;1.00;;;;;;4785917;29;20935;-88
2023/01/17 02:26:29;;;;;;;3.50;2.97;;;3.60;1.00;;;;;;4834114;29;20200;-88
2023/01/17 02:29:12;;;;;;;8.35;4.35;;;3.60;1.00;;;;;;4878295;29;20191;-88
2023/01/17 02:31:40;;;;;;;6.72;3.88;;;3.60;1.00;;;;;;4867196;29;20207;-88
2023/01/17 02:34:26;;;;;;;7.78;3.35;;;3.50;1.00;;;;;;4863563;29;20199;-88
2023/01/17 02:37:01;;;;;;;7.25;3.90;;;3.50;1.00;;;;;;4878513;29;20195;-89
2023/01/17 02:39:32;;;;;;;6.18;3.47;;;3.50;1.00;;;;;;4880038;29;20191;-88
2023/01/17 02:42:10;;;;;;;5.90;3.13;;;3.50;1.00;;;;;;4878202;29;20187;-88
2023/01/17 02:44:40;;;;;;;5.13;3.78;;;3.50;1.00;;;;;;4887113;29;20609;-88
2023/01/17 02:47:26;;;;;;;8.45;4.10;;;3.50;1.00;;;;;;4870984;29;20186;-88
2023/01/17 02:50:01;;;;;;;7.05;3.75;;;3.50;1.00;;;;;;4862885;29;20630;-88
2023/01/17 02:52:39;;;;;;;6.40;4.60;;;3.50;1.00;;;;;;4877143;29;20564;-88
2023/01/17 02:55:26;;;;;;;6.22;5.13;;;3.50;1.00;;;;;;4877876;29;20257;-88
2023/01/17 02:58:30;;;;;;;7.68;5.78;;;3.40;1.00;;;;;;4863194;29;20195;-88
2023/01/17 03:01:09;;;;;;;6.78;5.60;;;3.40;1.00;;;;;;4862526;29;20231;-87
2023/01/17 03:03:56;;;;;;;12.00;7.90;;;3.40;1.00;;;;;;4880199;29;20538;-88
2023/01/17 03:06:38;;;;;;;10.68;6.57;;;3.40;1.00;;;;;;4878173;29;20203;-88
2023/01/17 03:09:05;;;;;;;11.73;6.45;;;3.40;1.00;;;;;;4877979;29;20167;-88
2023/01/17 03:11:31;;;;;;;14.20;6.28;;;3.40;1.00;;;;;;4862177;29;20219;-88
2023/01/17 03:13:57;;;;;;;9.20;7.20;;;3.40;1.00;;;;;;4870253;29;20199;-88
2023/01/17 03:16:26;;;;;;;14.50;8.43;;;3.40;1.00;;;;;;4878540;29;20195;-88
2023/01/17 03:18:52;;;;;;;9.10;6.40;;;3.50;1.00;;;;;;4862636;29;20428;-88
2023/01/17 03:21:19;;;;;;;9.77;6.88;;;3.50;1.00;;;;;;4861906;29;20210;-87
2023/01/17 03:23:44;;;;;;;12.40;9.57;;;3.50;1.00;;;;;;4862692;29;20187;-88
2023/01/17 03:26:10;;;;;;;15.67;7.93;;;3.50;1.00;;;;;;4876296;29;20196;-86
2023/01/17 03:28:35;;;;;;;14.57;6.63;;;3.50;1.00;;;;;;4861249;29;20213;-88
2023/01/17 03:31:01;;;;;;;11.83;6.83;;;3.50;1.00;;;;;;4877833;29;20615;-88
2023/01/17 03:33:27;;;;;;;7.60;6.07;;;3.50;1.00;;;;;;4878972;29;20235;-87
2023/01/17 03:35:53;;;;;;;10.53;6.10;;;3.50;1.00;;;;;;4878530;29;20191;-88
2023/01/17 03:38:19;;;;;;;8.25;5.38;;;3.50;1.00;;;;;;4862950;29;20234;-88
2023/01/17 03:40:45;;;;;;;10.23;6.05;;;3.50;1.00;;;;;;4878135;29;20719;-88
2023/01/17 03:43:10;;;;;;;8.23;6.10;;;3.50;1.00;;;;;;4879158;29;20187;-87
2023/01/17 03:45:36;;;;;;;10.30;7.00;;;3.50;1.00;;;;;;4861303;29;20195;-88
2023/01/17 03:48:02;;;;;;;7.77;5.03;;;3.50;1.00;;;;;;4861927;29;20225;-88
2023/01/17 03:50:36;;;;;;;7.07;5.33;;;3.50;1.00;;;;;;4850960;29;20224;-88
2023/01/17 03:53:02;;;;;;;9.60;5.57;;;3.50;1.00;;;;;;4856412;29;20215;-88
2023/01/17 03:55:27;;;;;;;6.93;5.00;;;3.50;1.00;;;;;;4878157;29;20184;-87
2023/01/17 03:57:53;;;;;;;11.73;5.87;;;3.50;1.00;;;;;;4877967;29;20531;-88
2023/01/17 04:00:19;;;;;;;8.57;6.10;;;3.40;1.00;;;;;;4859077;29;20199;-88
2023/01/17 04:02:45;;;;;;;11.93;6.40;;;3.40;1.00;;;;;;4861375;29;20184;-87
2023/01/17 04:05:10;;;;;;;8.13;5.93;;;3.40;1.00;;;;;;4877104;29;20679;-88
2023/01/17 04:07:36;;;;;;;11.63;7.00;;;3.40;1.00;;;;;;4878590;29;20187;-88
2023/01/17 04:10:02;;;;;;;14.93;7.30;;;3.40;1.00;;;;;;4853439;29;20295;-86
2023/01/17 04:12:28;;;;;;;11.95;6.10;;;3.30;1.00;;;;;;4845052;29;20180;-88
2023/01/17 04:14:53;;;;;;;10.07;5.90;;;3.30;1.00;;;;;;4862717;29;20264;-88
2023/01/17 04:17:19;;;;;;;9.17;5.80;;;3.30;1.00;;;;;;4860121;29;20526;-88
2023/01/17 04:19:45;;;;;;;8.30;5.60;;;3.30;1.00;;;;;;4873342;29;20605;-88
2023/01/17 04:22:11;;;;;;;8.90;6.23;;;3.30;1.00;;;;;;4877957;29;20860;-89
2023/01/17 04:24:36;;;;;;;12.37;6.60;;;3.30;1.00;;;;;;4877202;29;20483;-88
2023/01/17 04:27:04;;;;;;;11.40;6.40;;;3.30;1.00;;;;;;4861960;29;20188;-87
2023/01/17 04:29:29;;;;;;;11.27;6.57;;;3.30;1.00;;;;;;4877908;29;20270;-89
2023/01/17 04:31:55;;;;;;;9.30;6.53;;;3.20;1.00;;;;;;4861552;29;20695;-87
2023/01/17 04:34:20;;;;;;;12.10;6.97;;;3.20;1.00;;;;;;4875968;29;20691;-88
2023/01/17 04:36:46;;;;;;;10.40;6.10;;;3.10;1.00;;;;;;4861217;29;20183;-88
2023/01/17 04:39:12;;;;;;;9.60;5.87;;;3.10;1.00;;;;;;4858877;29;20779;-88
2023/01/17 04:41:37;;;;;;;8.70;6.47;;;3.10;1.00;;;;;;4866095;29;20208;-88
2023/01/17 04:44:03;;;;;;;8.37;5.90;;;3.00;1.00;;;;;;4868873;29;20199;-88
2023/01/17 04:46:29;;;;;;;12.40;6.47;;;3.00;1.00;;;;;;4861243;29;20187;-87
2023/01/17 04:48:54;;;;;;;10.02;6.47;;;2.90;1.00;;;;;;4877174;29;20196;-88
2023/01/17 04:51:20;;;;;;;14.90;6.77;;;2.90;1.00;;;;;;4859413;29;20208;-87
2023/01/17 04:53:45;;;;;;;8.70;6.30;;;2.80;1.00;;;;;;4860787;29;20233;-89
2023/01/17 04:56:11;;;;;;;8.83;6.63;;;2.80;1.00;;;;;;4862562;29;20180;-88
2023/01/17 04:58:37;;;;;;;12.73;6.57;;;2.70;1.00;;;;;;4890430;29;20184;-86
2023/01/17 05:01:04;;;;;;;12.70;5.97;;;2.70;1.00;;;;;;4873113;29;20254;-87
2023/01/17 05:03:30;;;;;;;17.08;7.03;;;2.70;1.00;;;;;;4860241;29;20188;-87
2023/01/17 05:05:56;;;;;;;15.97;6.90;;;2.70;1.00;;;;;;4872017;29;20263;-89
2023/01/17 05:08:21;;;;;;;13.77;8.73;;;2.70;1.00;;;;;;4852084;29;20455;-87
2023/01/17 05:10:47;;;;;;;10.80;7.37;;;2.70;1.00;;;;;;4861319;29;20215;-88
2023/01/17 05:13:13;;;;;;;14.37;7.10;;;2.70;1.00;;;;;;4864826;29;20202;-88
2023/01/17 05:15:39;;;;;;;13.90;7.93;;;2.60;1.00;;;;;;4880294;29;20195;-88
2023/01/17 05:18:07;;;;;;;11.17;7.50;;;2.60;1.00;;;;;;4861567;29;20192;-89
2023/01/17 05:20:34;;;;;;;10.57;7.85;;;2.60;1.00;;;;;;4877474;29;20260;-88
2023/01/17 05:23:00;;;;;;;16.95;7.40;;;2.60;1.00;;;;;;4861234;29;20597;-87
2023/01/17 05:25:30;;;;;;;11.67;8.10;;;2.60;1.00;;;;;;4873418;29;20331;-87
2023/01/17 05:27:58;;;;;;;12.35;7.75;;;2.60;1.00;;;;;;4853847;29;21067;-87
2023/01/17 05:30:25;;;;;;;14.07;7.47;;;2.50;1.00;;;;;;4864351;29;20244;-88
2023/01/17 05:32:53;;;;;;;13.95;8.98;;;2.50;1.00;;;;;;4843323;29;20188;-86
2023/01/17 05:35:20;;;;;;;12.90;7.82;;;2.50;1.00;;;;;;4850491;29;20184;-88
2023/01/17 05:37:50;;;;;;;19.63;9.00;;;2.50;1.00;;;;;;4884019;29;20172;-90
2023/01/17 05:40:16;;;;;;;15.27;7.63;;;2.50;1.00;;;;;;4879249;29;20220;-89
2023/01/17 05:42:49;;;;;;;14.07;7.97;;;2.50;1.00;;;;;;4899901;29;20180;-88
2023/01/17 05:45:16;;;;;;;13.60;8.43;;;2.50;1.00;;;;;;4896024;29;20168;-89
2023/01/17 05:47:45;;;;;;;13.65;7.53;;;2.50;1.00;;;;;;4901188;29;20192;-91
2023/01/17 05:50:12;;;;;;;12.10;7.10;;;2.50;1.00;;;;;;4868777;29;20211;-87
2023/01/17 05:52:38;;;;;;;13.23;8.13;;;2.50;1.00;;;;;;4865997;29;20187;-87
2023/01/17 05:55:05;;;;;;;13.40;8.40;;;2.50;1.00;;;;;;4865482;29;20183;-89
2023/01/17 05:57:31;;;;;;;16.00;7.70;;;2.40;1.00;;;;;;4865606;29;20175;-88
2023/01/17 05:59:56;;;;;;;16.70;8.20;;;2.40;1.00;;;;;;4879272;29;20255;-87
2023/01/17 06:02:22;;;;;;;14.77;8.13;;;2.40;1.00;;;;;;4880896;29;20187;-88
2023/01/17 06:04:47;;;;;;;14.87;9.47;;;2.40;1.00;;;;;;4858638;29;20204;-88
2023/01/17 06:07:13;;;;;;;13.87;8.30;;;2.30;1.00;;;;;;4863859;29;20815;-88
2023/01/17 06:09:39;;;;;;;12.83;7.27;;;2.30;1.00;;;;;;4863159;29;20190;-87
2023/01/17 06:12:04;;;;;;;18.63;8.00;;;2.30;1.00;;;;;;4863666;29;20214;-88
2023/01/17 06:14:30;;;;;;;19.97;8.53;;;2.20;1.00;;;;;;4870979;29;20652;-87
2023/01/17 06:17:07;;;;;;;14.23;8.97;;;2.20;1.00;;;;;;4879318;29;20669;-88
2023/01/17 06:19:33;;;;;;;15.05;7.80;;;2.20;1.00;;;;;;4863350;29;20199;-88
2023/01/17 06:21:58;;;;;;;12.80;8.37;;;2.10;1.00;;;;;;4861478;29;20184;-88
2023/01/17 06:24:24;;;;;;;13.93;8.10;;;2.10;1.00;;;;;;4880303;29;20214;-88
2023/01/17 06:26:49;;;;;;;16.77;9.27;;;2.10;1.00;;;;;;4880383;29;20590;-88
2023/01/17 06:29:15;;;;;;;10.73;7.80;;;2.10;1.00;;;;;;4876043;29;20196;-88
2023/01/17 06:31:40;;;;;;;10.90;8.93;;;2.00;1.00;;;;;;4880165;29;20290;-88
2023/01/17 06:34:06;;;;;;;13.60;7.80;;;2.00;1.00;;;;;;4863026;29;20589;-88
2023/01/17 06:36:32;;;;;;;15.37;7.57;;;2.00;1.00;;;;;;4863695;29;20213;-88
2023/01/17 06:38:58;;;;;;;14.82;8.77;;;2.00;1.00;;;;;;4878623;29;20255;-91
2023/01/17 06:41:24;;;;;;;15.23;7.93;;;2.00;1.00;;;;;;4880164;29;20359;-88
2023/01/17 06:43:52;;;;;;;12.45;7.50;;;2.00;1.00;;;;;;4865262;29;20192;-88
2023/01/17 06:50:02;;;;;;;11.23;6.90;;;1.90;1.00;;;;;;4840400;29;20297;-87
2023/01/17 06:52:33;;;;;;;13.45;7.25;;;1.90;1.00;;;;;;4877052;29;20195;-88
2023/01/17 06:55:32;;;;;;;17.30;7.93;;;1.90;1.00;;;;;;4878891;29;20210;-88
2023/01/17 06:57:58;;;;;;;11.77;7.15;;;1.90;1.00;;;;;;4859892;29;20200;-89
2023/01/17 07:00:25;;;;;;;16.13;8.27;;;1.80;1.00;;;;;;4862343;29;20238;-88
2023/01/17 07:02:51;;;;;;;15.10;8.52;;;1.80;1.00;;;;;;4862613;29;20656;-89
2023/01/17 07:05:18;;;;;;;14.95;8.07;;;1.80;1.00;;;;;;4863521;29;20199;-88
2023/01/17 07:07:44;;;;;;;13.77;6.93;;;1.80;1.00;;;;;;4863614;29;20192;-88
2023/01/17 07:10:11;;;;;;;11.85;7.00;;;1.70;1.00;;;;;;4880138;29;20203;-90
2023/01/17 07:12:37;;;;;;;13.20;7.28;;;1.70;1.00;;;;;;4859496;29;20567;-87
2023/01/17 07:15:29;;;;;;;15.23;7.00;;;1.70;1.00;;;;;;4879223;29;20183;-88
2023/01/17 07:18:39;;;;;;;14.38;7.28;;;1.70;1.00;;;;;;4863486;29;20194;-88
2023/01/17 07:21:42;;;;;;;16.75;6.90;;;1.70;1.00;;;;;;4851330;29;20271;-88
2023/01/17 07:24:39;;;;;;;;;;;;;;;;;;;;;
2023/01/17 07:27:07;;;;;;;11.07;7.32;;;1.70;1.00;;;;;;4878732;29;20196;-87
2023/01/17 07:29:35;;;;;;;11.77;6.80;;;1.80;1.00;;;;;;4861800;29;20190;-87
2023/01/17 07:32:02;;;;;;;14.60;7.25;;;1.90;1.00;;;;;;4861994;29;20239;-87
2023/01/17 07:34:27;;;;;;;13.57;7.00;;;2.00;1.00;;;;;;4861632;29;20241;-86
2023/01/17 07:36:53;;;;;;;18.13;7.00;;;2.00;1.00;;;;;;4870358;29;20271;-87
2023/01/17 07:39:22;;;;;;;14.73;7.00;;;2.10;1.00;;;;;;4877829;29;20917;-87
2023/01/17 07:41:50;;;;;;;10.98;6.00;;;2.10;1.00;;;;;;4876856;29;20196;-87
2023/01/17 07:44:24;;;;;;;14.80;7.78;;;2.20;1.00;;;;;;4878990;29;20200;-86
2023/01/17 07:46:50;;;;;;;9.45;6.65;;;2.20;1.00;;;;;;4860799;29;20195;-87
2023/01/17 07:49:15;;;;;;;14.13;8.10;;;2.30;1.00;;;;;;4876278;29;20194;-87
2023/01/17 07:51:41;;;;;;;17.00;6.70;;;2.30;1.00;;;;;;4861470;29;20199;-87
2023/01/17 07:54:07;;;;;;;11.97;7.40;;;2.30;1.00;;;;;;4878869;29;20291;-86
2023/01/17 07:56:38;;;;;;;12.30;7.03;;;2.40;1.00;;;;;;4879052;29;20183;-86
2023/01/17 07:59:05;;;;;;;12.02;7.07;;;2.40;1.00;;;;;;4864336;29;20550;-86
2023/01/17 08:01:33;;;;;;;14.95;7.20;;;2.50;1.00;;;;;;4880138;29;20589;-87
2023/01/17 08:04:01;;;;;;;12.40;7.25;;;2.50;1.00;;;;;;4882118;29;20212;-86
2023/01/17 08:06:28;;;;;;;12.02;7.03;;;2.60;99.90;;;;;;4871387;29;20215;-86
2023/01/17 08:08:58;;;;;;;13.75;6.57;;;2.70;99.90;;;;;;4877388;29;20651;-87
2023/01/17 08:11:26;;;;;;;16.75;7.38;;;2.80;99.90;;;;;;4862149;29;20222;-86
2023/01/17 08:13:58;;;;;;;22.92;7.68;;;3.00;99.90;;;;;;4853414;29;20204;-86
2023/01/17 08:16:24;;;;;;;12.63;7.97;;;3.20;99.90;;;;;;4868510;29;20194;-86
2023/01/17 08:18:51;;;;;;;14.38;5.88;;;3.30;99.90;;;;;;4862177;29;20190;-86
2023/01/17 08:21:17;;;;;;;9.50;5.70;;;3.50;99.90;;;;;;4862324;29;20210;-86
2023/01/17 08:23:49;;;;;;;8.05;6.28;;;3.80;99.90;;;;;;4859866;29;20626;-87
2023/01/17 08:26:25;;;;;;;17.42;6.43;;;4.00;99.90;;;;;;4861272;29;20188;-86
2023/01/17 08:29:01;;;;;;;8.30;5.78;;;4.20;97.90;;;;;;4877542;29;20183;-86
2023/01/17 08:31:33;;;;;;;13.30;6.50;;;4.40;1.00;;;;;;4863164;29;20211;-86
2023/01/17 08:34:07;;;;;;;8.93;6.25;;;4.90;1.00;;;;;;4867548;29;20226;-86
2023/01/17 08:36:46;;;;;;;10.23;5.72;;;5.50;1.00;;;;;;4871702;29;20192;-86
2023/01/17 08:39:15;;;;;;;10.27;5.78;;;6.00;99.90;;;;;;4872437;29;20219;-87
2023/01/17 08:41:44;;;;;;;10.03;6.43;;;7.10;1.00;;;;;;4862866;29;20207;-85
2023/01/17 08:44:20;;;;;;;7.73;6.43;;;8.30;1.00;;;;;;4861067;29;20908;-86
2023/01/17 08:46:53;;;;;;;10.67;5.63;;;8.40;99.90;;;;;;4860145;29;20483;-87
2023/01/17 08:49:34;;;;;;;6.30;5.47;;;8.30;99.90;;;;;;4862865;29;20462;-87
2023/01/17 08:52:04;;;;;;;8.47;5.37;;;8.00;1.00;;;;;;4860964;29;20483;-86
2023/01/17 08:54:35;;;;;;;7.07;4.80;;;7.80;1.00;;;;;;4877762;29;20554;-86
2023/01/17 08:57:06;;;;;;;12.87;5.53;;;7.90;1.00;;;;;;4876782;29;20286;-87
2023/01/17 08:59:34;;;;;;;7.27;5.43;;;9.00;14.80;;;;;;4871236;29;20540;-87
2023/01/17 09:02:15;;;;;;;8.87;5.13;;;9.50;99.90;;;;;;4859365;29;20436;-86
2023/01/17 09:04:54;;;;;;;8.10;5.70;;;9.40;99.90;;;;;;4869857;29;20933;-88
2023/01/17 09:07:30;;;;;;;11.40;5.00;;;9.00;99.90;;;;;;4865512;29;20940;-87
2023/01/17 09:10:07;;;;;;;10.03;5.27;;;9.50;99.90;;;;;;4861121;29;20452;-87
2023/01/17 09:13:12;;;;;;;;;;;;;;;;;;;;;
2023/01/17 09:15:38;;;;;;;11.80;6.30;;;8.80;99.90;;;;;;4872771;29;20451;-87
2023/01/17 09:18:11;;;;;;;11.37;5.40;;;8.60;99.90;;;;;;4868686;29;20538;-88
2023/01/17 09:23:35;;;;;;;13.40;8.57;;;8.90;92.90;;;;;;4873421;29;20457;-87
2023/01/17 09:26:01;;;;;;;16.40;6.70;;;9.10;8.50;;;;;;4864897;29;20435;-87
2023/01/17 09:28:27;;;;;;;13.03;8.30;;;9.00;1.00;;;;;;4881346;29;20546;-87
2023/01/17 09:31:07;;;;;;;15.70;11.00;;;9.00;1.00;;;;;;4862256;29;20467;-87
2023/01/17 09:33:35;;;;;;;15.77;10.80;;;8.80;1.00;;;;;;4876711;29;20560;-88
2023/01/17 09:36:03;;;;;;;23.57;12.60;;;8.60;1.00;;;;;;4880274;29;20443;-87
2023/01/17 09:38:29;;;;;;;10.33;6.80;;;8.40;1.00;;;;;;4880262;29;20463;-87
2023/01/17 09:40:55;;;;;;;16.60;6.63;;;8.20;1.00;;;;;;4863850;29;20488;-88
2023/01/17 09:43:23;;;;;;;16.20;9.63;;;8.10;1.00;;;;;;4869766;29;20435;-88
2023/01/17 09:45:49;;;;;;;11.83;7.40;;;8.00;1.00;;;;;;4868136;29;20443;-87
2023/01/17 09:48:22;;;;;;;12.33;6.60;;;7.90;1.00;;;;;;4876001;29;20440;-88
2023/01/17 09:51:11;;;;;;;9.30;6.67;;;8.00;1.00;;;;;;4861615;29;20207;-88
2023/01/17 09:53:38;;;;;;;12.30;5.87;;;8.10;1.00;;;;;;4875640;29;20476;-88
2023/01/17 09:56:11;;;;;;;7.73;5.87;;;8.10;1.00;;;;;;4862573;29;20464;-87
2023/01/17 09:59:03;;;;;;;8.50;5.47;;;8.30;1.00;;;;;;4864174;29;20427;-87
2023/01/17 10:01:50;;;;;;;9.83;6.10;;;8.50;1.00;;;;;;4876865;29;20467;-88
2023/01/17 10:04:44;;;;;;;14.13;6.50;;;8.70;1.00;;;;;;4875558;29;20860;-88
2023/01/17 10:07:30;;;;;;;10.07;6.03;;;8.80;1.00;;;;;;4875743;29;20515;-87
2023/01/17 10:10:31;;;;;;;9.93;6.00;;;8.90;1.00;;;;;;4869823;29;20462;-88
2023/01/17 10:13:22;;;;;;;6.73;5.30;;;9.00;1.00;;;;;;4862251;29;20514;-88
2023/01/17 10:15:51;;;;;;;9.93;6.03;;;9.00;1.00;;;;;;4895417;29;20431;-87
2023/01/17 10:18:46;;;;;;;9.83;6.27;;;8.90;1.00;;;;;;4880752;29;20476;-88
2023/01/17 10:22:06;;;;;;;10.10;5.90;;;8.80;1.00;;;;;;4850760;29;20822;-87
2023/01/17 10:24:55;;;;;;;9.40;5.67;;;8.50;1.00;;;;;;4806060;29;20824;-88
2023/01/17 10:27:29;;;;;;;10.17;5.50;;;8.30;1.00;;;;;;4857849;29;20416;-89
2023/01/17 10:29:55;;;;;;;6.80;5.45;;;8.00;1.00;;;;;;4861919;29;20863;-87
2023/01/17 10:32:27;;;;;;;10.37;5.40;;;7.80;1.00;;;;;;4870183;29;20192;-87
2023/01/17 10:34:53;;;;;;;13.77;6.68;;;7.70;1.00;;;;;;4870703;29;20211;-87
2023/01/17 10:37:36;;;;;;;10.10;5.40;;;7.60;1.00;;;;;;4858097;29;20196;-87
2023/01/17 10:40:18;;;;;;;7.03;5.43;;;7.70;1.00;;;;;;4877548;29;20558;-88
2023/01/17 10:43:26;;;;;;;11.50;5.30;;;7.70;1.00;;;;;;4868228;29;21030;-87
2023/01/17 10:46:12;;;;;;;;;;;;;;;;;;;;;
2023/01/17 10:48:43;;;;;;;12.57;5.63;;;7.10;1.00;;;;;;4834251;29;20267;-87
2023/01/17 10:51:58;;;;;;;8.07;5.65;;;7.00;1.00;;;;;;4862359;29;20257;-87
2023/01/17 10:54:46;;;;;;;10.02;5.90;;;6.90;1.00;;;;;;4859706;29;20219;-87
2023/01/17 10:57:17;;;;;;;15.55;6.20;;;7.00;1.00;;;;;;4874449;29;20188;-85
2023/01/17 10:59:52;;;;;;;7.45;5.85;;;7.10;1.00;;;;;;4875656;29;20279;-86
2023/01/17 11:02:21;;;;;;;13.60;6.60;;;7.20;1.00;;;;;;4871554;29;20187;-86
2023/01/17 11:04:53;;;;;;;13.93;6.20;;;7.20;1.00;;;;;;4865552;29;20230;-86
2023/01/17 11:07:29;;;;;;;14.27;7.47;;;7.10;1.00;;;;;;4862554;29;20198;-87
2023/01/17 11:10:05;;;;;;;9.70;5.40;;;7.10;1.00;;;;;;4860483;29;20636;-86
2023/01/17 11:12:47;;;;;;;11.20;6.57;;;7.10;1.00;;;;;;4876012;29;20671;-86
2023/01/17 11:15:14;;;;;;;9.18;4.95;;;7.00;1.00;;;;;;4879044;29;20582;-87
2023/01/17 11:17:48;;;;;;;10.57;4.97;;;6.90;1.00;;;;;;4871616;29;20183;-86
2023/01/17 11:20:35;;;;;;;13.55;5.70;;;6.90;1.00;;;;;;4874100;29;20219;-87
2023/01/17 11:23:44;;;;;;;22.20;6.22;;;7.00;1.00;;;;;;4861464;29;20227;-88
2023/01/17 11:26:19;;;;;;;8.17;5.97;;;7.10;1.00;;;;;;4857210;29;20233;-87
2023/01/17 11:28:45;;;;;;;10.80;5.10;;;7.30;1.00;;;;;;4877021;29;20438;-87
2023/01/17 11:31:15;;;;;;;15.13;5.30;;;7.90;1.00;;;;;;4877659;29;20432;-86
2023/01/17 11:33:55;;;;;;;7.13;4.77;;;9.10;1.00;;;;;;4873375;29;20478;-87
2023/01/17 11:36:26;;;;;;;8.17;4.43;;;10.50;1.00;;;;;;4858128;29;20515;-87
2023/01/17 11:39:16;;;;;;;8.67;3.87;;;11.80;1.00;;;;;;4860596;29;20422;-87
2023/01/17 11:41:41;;;;;;;12.60;4.47;;;12.90;99.90;;;;;;4876272;29;20548;-87
2023/01/17 11:44:21;;;;;;;8.30;4.20;;;13.80;99.90;;;;;;4880856;29;20571;-87
2023/01/17 11:46:47;;;;;;;8.57;3.87;;;14.60;99.90;;;;;;4879970;29;20220;-87
2023/01/17 11:49:30;;;;;;;8.93;3.30;;;15.40;99.90;;;;;;4877586;29;20845;-88
2023/01/17 11:51:56;;;;;;;8.10;4.20;;;16.20;99.90;;;;;;4856929;29;20195;-87
2023/01/17 11:54:38;;;;;;;3.83;3.13;;;16.80;99.90;;;;;;4876891;29;20514;-88
2023/01/17 11:57:23;;;;;;;9.23;3.70;;;17.40;99.90;;;;;;4875327;29;20638;-88
2023/01/17 11:59:51;;;;;;;9.30;3.83;;;17.80;99.90;;;;;;4860651;29;20960;-88
2023/01/17 12:02:39;;;;;;;5.97;2.80;;;18.10;99.90;;;;;;4859950;29;20454;-88
2023/01/17 12:05:31;;;;;;;6.83;3.40;;;18.20;99.90;;;;;;4878370;29;20485;-87
2023/01/17 12:08:26;;;;;;;7.40;3.07;;;18.20;99.90;;;;;;4876745;29;20447;-88
2023/01/17 12:11:30;;;;;;;7.23;3.23;;;18.10;99.90;;;;;;4874160;29;20554;-87
2023/01/17 12:14:25;;;;;;;6.20;2.80;;;18.10;99.90;;;;;;4876357;29;20441;-87
2023/01/17 12:17:10;;;;;;;6.20;2.50;;;18.20;99.90;;;;;;4868674;29;20796;-87
2023/01/17 12:20:04;;;;;;;4.80;2.80;;;18.40;99.90;;;;;;4877702;29;20436;-87
2023/01/17 12:22:55;;;;;;;6.77;2.60;;;18.50;99.90;;;;;;4859933;29;20527;-87
2023/01/17 12:25:42;;;;;;;9.17;2.97;;;18.50;99.90;;;;;;4871821;29;20475;-87
2023/01/17 12:28:46;;;;;;;8.60;2.53;;;18.80;99.90;;;;;;4873448;29;20837;-88
2023/01/17 12:31:14;;;;;;;5.10;2.47;;;19.10;99.90;;;;;;4852703;29;20460;-88
2023/01/17 12:34:17;;;;;;;8.10;3.57;;;19.20;99.90;;;;;;4876238;29;20463;-87
2023/01/17 12:36:55;;;;;;;5.13;2.50;;;19.10;99.90;;;;;;4859554;29;20434;-87
2023/01/17 12:39:29;;;;;;;12.20;3.20;;;18.80;99.90;;;;;;4841263;29;20426;-88
2023/01/17 12:42:12;;;;;;;4.60;2.40;;;18.60;99.90;;;;;;4879696;29;21284;-90
2023/01/17 12:44:48;;;;;;;8.43;3.37;;;18.70;99.90;;;;;;4881361;29;21003;-88
2023/01/17 12:47:16;;;;;;;12.00;3.83;;;18.90;99.90;;;;;;4859294;29;20519;-89
2023/01/17 12:50:00;;;;;;;11.33;2.80;;;18.50;99.90;;;;;;4878466;29;20448;-89
2023/01/17 12:52:34;;;;;;;8.00;3.67;;;18.40;99.90;;;;;;4880050;29;20824;-88
2023/01/17 12:55:06;;;;;;;9.53;3.20;;;17.50;99.90;;;;;;4866128;29;20434;-87
2023/01/17 12:57:39;;;;;;;7.60;3.43;;;16.50;99.90;;;;;;4859898;29;20968;-87
2023/01/17 13:00:12;;;;;;;6.07;3.10;;;15.70;99.90;;;;;;4876027;29;20470;-85
2023/01/17 13:03:04;;;;;;;5.10;3.20;;;15.30;99.90;;;;;;4878095;29;20447;-86
2023/01/17 13:05:30;;;;;;;9.20;2.90;;;15.60;99.90;;;;;;4858069;29;20890;-87
2023/01/17 13:08:13;;;;;;;7.23;2.73;;;15.30;99.90;;;;;;4862956;29;20595;-86
2023/01/17 13:11:02;;;;;;;8.93;2.47;;;14.80;99.90;;;;;;4878088;29;20589;-86
2023/01/17 13:13:29;;;;;;;10.50;1.80;;;14.20;99.90;;;;;;4885300;29;20423;-87
2023/01/17 13:16:15;;;;;;;6.50;1.80;;;13.80;99.90;;;;;;4880529;29;20449;-86
2023/01/17 13:18:45;;;;;;;7.93;2.10;;;13.30;99.90;;;;;;4859556;29;20832;-87
2023/01/17 13:21:29;;;;;;;8.17;2.40;;;12.90;99.90;;;;;;4874562;29;20481;-86
2023/01/17 13:24:06;;;;;;;5.30;3.03;;;12.60;99.90;;;;;;4873907;29;20920;-86
2023/01/17 13:27:13;;;;;;;9.20;3.33;;;12.20;99.90;;;;;;4875590;29;20458;-86
2023/01/17 13:30:03;;;;;;;7.13;2.80;;;11.70;99.90;;;;;;4860446;29;20424;-86
2023/01/17 13:32:40;;;;;;;6.13;3.03;;;11.40;99.90;;;;;;4875198;29;20436;-86
2023/01/17 13:35:17;;;;;;;8.80;3.10;;;11.10;99.90;;;;;;4879699;29;20416;-86
2023/01/17 13:37:57;;;;;;;11.30;3.20;;;11.00;99.90;;;;;;4860027;29;20451;-86
2023/01/17 13:40:50;;;;;;;6.20;3.00;;;10.70;99.90;;;;;;4877611;29;20470;-86
2023/01/17 13:43:24;;;;;;;9.10;3.40;;;10.40;99.90;;;;;;4871079;29;20468;-86
2023/01/17 13:46:00;;;;;;;8.87;3.50;;;10.30;99.90;;;;;;4879649;29;20424;-87
2023/01/17 13:48:27;;;;;;;8.50;3.60;;;10.20;99.90;;;;;;4868158;29;20448;-85
2023/01/17 13:50:57;;;;;;;5.47;2.83;;;10.30;99.90;;;;;;4878426;29;20452;-86
2023/01/17 13:53:43;;;;;;;8.67;3.10;;;10.50;99.90;;;;;;4877648;29;20483;-86
2023/01/17 13:56:11;;;;;;;9.17;3.90;;;10.40;99.90;;;;;;4862026;29;20475;-86
2023/01/17 13:58:49;;;;;;;10.17;3.80;;;10.40;99.90;;;;;;4879200;29;20427;-86
2023/01/17 14:01:37;;;;;;;12.80;3.17;;;10.20;99.90;;;;;;4862349;29;20451;-85
2023/01/17 14:04:12;;;;;;;8.10;3.47;;;10.10;99.90;;;;;;4877178;29;20498;-86
2023/01/17 14:06:43;;;;;;;6.93;3.03;;;10.10;99.90;;;;;;4876242;29;20540;-86
2023/01/17 14:09:12;;;;;;;11.20;2.97;;;10.40;99.90;;;;;;4891121;29;21041;-86
2023/01/17 14:11:53;;;;;;;6.13;3.33;;;10.60;99.90;;;;;;4859588;29;20876;-86
2023/01/17 14:14:44;;;;;;;5.93;3.20;;;10.70;99.90;;;;;;4856034;29;20448;-86
2023/01/17 14:17:43;;;;;;;3.80;2.80;;;11.20;99.90;;;;;;4879776;29;20443;-86
2023/01/17 14:20:08;;;;;;;7.43;2.57;;;11.80;99.90;;;;;;4874957;29;20468;-88
2023/01/17 14:22:48;;;;;;;7.30;2.50;;;12.20;99.90;;;;;;4873771;29;20855;-86
2023/01/17 14:25:18;;;;;;;4.53;2.57;;;12.50;99.90;;;;;;4872033;29;20213;-86
2023/01/17 14:27:50;;;;;;;5.57;2.23;;;12.70;99.90;;;;;;4865735;29;20454;-86
2023/01/17 14:30:16;;;;;;;6.27;2.47;;;12.70;99.90;;;;;;4878770;29;20470;-86
2023/01/17 14:33:03;;;;;;;6.50;2.13;;;12.70;99.90;;;;;;4877779;29;20446;-86
2023/01/17 14:35:33;;;;;;;10.70;2.60;;;12.60;99.90;;;;;;4863822;29;20442;-86
2023/01/17 14:38:04;;;;;;;7.33;2.40;;;12.60;99.90;;;;;;4878052;29;21093;-86
2023/01/17 14:40:36;;;;;;;5.50;2.10;;;12.40;99.90;;;;;;4877408;29;20473;-88
2023/01/17 14:43:06;;;;;;;7.10;2.60;;;12.10;99.90;;;;;;4872444;29;20457;-87
2023/01/17 14:45:33;;;;;;;11.13;3.27;;;11.80;99.90;;;;;;4878406;29;20424;-85
2023/01/17 14:48:03;;;;;;;5.27;2.40;;;11.30;99.90;;;;;;4860132;29;20811;-86
2023/01/17 14:50:44;;;;;;;9.27;2.53;;;11.10;99.90;;;;;;4878646;29;20440;-86
2023/01/17 14:53:17;;;;;;;6.23;2.80;;;10.90;99.90;;;;;;4878052;29;20439;-86
2023/01/17 14:55:59;;;;;;;7.10;2.53;;;10.80;99.90;;;;;;4878907;29;20415;-86
2023/01/17 14:58:27;;;;;;;12.70;3.17;;;10.70;99.90;;;;;;4876912;29;20526;-86
2023/01/17 15:00:59;;;;;;;7.50;2.50;;;10.70;99.90;;;;;;4878915;29;20507;-86
2023/01/17 15:03:25;;;;;;;7.13;3.13;;;10.70;99.90;;;;;;4877937;29;20476;-86